createdAt,value
2017-10-29T00:02:06.010Z,75.60
2017-10-29T00:04:33.548Z,75.50
2017-10-29T00:07:01.110Z,75.50
2017-10-29T00:09:37.983Z,75.30
2017-10-29T00:12:06.132Z,75.90
2017-10-29T00:14:33.673Z,75.30
2017-10-29T00:17:01.990Z,76.10
2017-10-29T00:19:29.533Z,75.40
2017-10-29T00:21:57.869Z,76.50
2017-10-29T00:24:25.392Z,75.60
2017-10-29T00:26:52.917Z,75.50
2017-10-29T00:29:20.466Z,75.50
2017-10-29T00:31:47.993Z,75.50
2017-10-29T00:34:15.524Z,75.80
2017-10-29T00:36:43.846Z,77.10
2017-10-29T00:39:11.367Z,76.60
2017-10-29T00:41:38.878Z,76.70
2017-10-29T00:44:07.424Z,77.50
2017-10-29T00:46:34.993Z,76.50
2017-10-29T00:49:02.513Z,76.70
2017-10-29T00:51:30.840Z,78.50
2017-10-29T00:53:58.388Z,77.70
2017-10-29T00:56:25.958Z,78.00
2017-10-29T00:58:53.543Z,77.80
2017-10-29T01:01:21.075Z,78.10
2017-10-29T01:03:49.363Z,79.30
2017-10-29T01:06:16.912Z,78.40
2017-10-29T01:08:44.443Z,78.50
2017-10-29T01:11:11.992Z,78.40
2017-10-29T01:13:39.541Z,78.40
2017-10-29T01:16:07.077Z,78.50
2017-10-29T01:18:34.590Z,78.60
2017-10-29T01:21:02.137Z,78.80
2017-10-29T01:23:30.820Z,79.60
2017-10-29T01:25:58.351Z,78.60
2017-10-29T01:28:26.655Z,79.30
2017-10-29T01:30:54.937Z,79.50
2017-10-29T01:33:22.485Z,78.40
2017-10-29T01:35:50.051Z,78.30
2017-10-29T01:38:17.575Z,79.10
2017-10-29T01:40:45.097Z,78.40
2017-10-29T01:43:12.642Z,78.40
2017-10-29T01:45:40.166Z,78.50
2017-10-29T01:48:07.687Z,78.60
2017-10-29T01:50:36.005Z,79.60
2017-10-29T01:53:03.558Z,78.60
2017-10-29T01:55:31.080Z,78.60
2017-10-29T01:57:58.649Z,78.70
2017-10-29T02:00:26.171Z,78.60
2017-10-29T02:02:53.726Z,78.80
2017-10-29T02:05:21.272Z,79.00
2017-10-29T02:07:48.798Z,78.70
2017-10-29T02:10:16.315Z,78.50
2017-10-29T02:12:44.619Z,79.40
2017-10-29T02:15:12.145Z,79.30
2017-10-29T02:17:39.687Z,78.60
2017-10-29T02:20:07.240Z,78.40
2017-10-29T02:22:34.783Z,78.30
2017-10-29T02:25:02.332Z,78.60
2017-10-29T02:27:29.869Z,78.70
2017-10-29T02:29:57.387Z,78.10
2017-10-29T02:32:25.666Z,79.00
2017-10-29T02:34:54.109Z,78.10
2017-10-29T02:37:22.397Z,79.00
2017-10-29T02:39:49.911Z,77.80
2017-10-29T02:42:18.235Z,78.80
2017-10-29T02:44:45.759Z,77.60
2017-10-29T02:47:13.311Z,77.70
2017-10-29T02:49:40.868Z,77.90
2017-10-29T02:52:08.398Z,78.10
2017-10-29T02:54:35.922Z,78.10
2017-10-29T02:57:03.496Z,77.90
2017-10-29T02:59:31.024Z,77.90
2017-10-29T03:01:58.552Z,78.20
2017-10-29T03:04:26.089Z,77.90
2017-10-29T03:06:53.605Z,77.90
2017-10-29T03:09:21.114Z,78.30
2017-10-29T03:11:48.685Z,77.80
2017-10-29T03:14:16.211Z,78.10
2017-10-29T03:16:43.735Z,78.00
2017-10-29T03:19:11.284Z,78.30
2017-10-29T03:21:38.877Z,78.30
2017-10-29T03:24:07.163Z,79.90
2017-10-29T03:26:34.705Z,78.80
2017-10-29T03:29:02.219Z,78.50
2017-10-29T03:31:29.743Z,78.70
2017-10-29T03:33:57.279Z,79.20
2017-10-29T03:36:24.800Z,78.70
2017-10-29T03:38:52.315Z,79.00
2017-10-29T03:41:20.844Z,80.50
2017-10-29T03:43:48.380Z,80.10
2017-10-29T03:46:15.919Z,79.60
2017-10-29T03:48:43.471Z,79.90
2017-10-29T03:51:11.014Z,80.30
2017-10-29T03:53:38.568Z,81.50
2017-10-29T03:56:06.124Z,81.40
2017-10-29T03:58:33.647Z,82.50
2017-10-29T04:01:01.185Z,83.40
2017-10-29T04:03:28.736Z,83.80
2017-10-29T04:05:56.268Z,84.30
2017-10-29T04:08:23.851Z,85.40
2017-10-29T04:10:52.172Z,87.20
2017-10-29T04:13:19.740Z,86.10
2017-10-29T04:15:47.280Z,86.20
2017-10-29T04:18:14.958Z,86.70
2017-10-29T04:20:42.495Z,87.10
2017-10-29T04:23:10.029Z,87.30
2017-10-29T04:25:37.582Z,87.50
2017-10-29T04:28:05.112Z,87.50
2017-10-29T04:30:32.637Z,87.10
2017-10-29T04:33:00.189Z,88.10
2017-10-29T04:35:27.721Z,88.20
2017-10-29T04:37:55.277Z,88.40
2017-10-29T04:40:22.835Z,88.30
2017-10-29T04:42:50.414Z,88.50
2017-10-29T04:45:18.732Z,89.60
2017-10-29T04:47:46.277Z,88.60
2017-10-29T04:50:13.831Z,88.80
2017-10-29T04:52:41.354Z,88.90
2017-10-29T04:55:08.907Z,88.50
2017-10-29T04:57:36.446Z,88.80
2017-10-29T05:00:03.985Z,88.80
2017-10-29T05:02:31.527Z,89.20
2017-10-29T05:04:59.052Z,89.00
2017-10-29T05:07:26.579Z,89.60
2017-10-29T05:09:54.146Z,89.40
2017-10-29T05:12:21.676Z,89.60
2017-10-29T05:14:49.205Z,89.90
2017-10-29T05:17:17.528Z,90.20
2017-10-29T05:19:45.062Z,89.70
2017-10-29T05:22:12.641Z,90.10
2017-10-29T05:24:40.207Z,90.20
2017-10-29T05:27:08.623Z,90.70
2017-10-29T05:29:36.239Z,90.40
2017-10-29T05:32:03.795Z,90.50
2017-10-29T05:34:31.332Z,90.90
2017-10-29T05:36:58.903Z,90.90
2017-10-29T05:39:26.464Z,90.90
2017-10-29T05:41:54.006Z,91.50
2017-10-29T05:44:21.530Z,91.80
2017-10-29T05:46:49.128Z,91.70
2017-10-29T05:49:17.419Z,92.40
2017-10-29T05:51:44.959Z,92.10
2017-10-29T05:54:12.511Z,92.10
2017-10-29T05:56:40.036Z,92.10
2017-10-29T05:59:07.570Z,92.30
2017-10-29T06:01:35.963Z,92.60
2017-10-29T06:04:03.600Z,92.60
2017-10-29T06:06:31.143Z,92.60
2017-10-29T06:08:58.703Z,92.70
2017-10-29T06:11:26.241Z,93.00
2017-10-29T06:13:53.837Z,93.20
2017-10-29T06:16:21.383Z,93.00
2017-10-29T06:18:48.962Z,93.30
2017-10-29T06:21:16.494Z,93.50
2017-10-29T06:23:44.821Z,93.70
2017-10-29T06:26:12.352Z,93.50
2017-10-29T06:28:39.914Z,93.40
2017-10-29T06:31:07.481Z,93.40
2017-10-29T06:33:35.806Z,93.30
2017-10-29T06:36:03.335Z,93.10
2017-10-29T06:38:30.906Z,92.70
2017-10-29T06:40:58.432Z,92.30
2017-10-29T06:43:25.971Z,92.20
2017-10-29T06:45:53.543Z,91.70
2017-10-29T06:48:21.381Z,91.50
2017-10-29T06:50:48.928Z,91.20
2017-10-29T06:53:16.491Z,91.30
2017-10-29T06:55:44.055Z,91.20
2017-10-29T06:58:12.348Z,91.80
2017-10-29T07:00:39.924Z,91.60
2017-10-29T07:03:07.446Z,91.40
2017-10-29T07:05:35.014Z,91.10
2017-10-29T07:08:02.564Z,91.00
2017-10-29T07:10:30.126Z,90.80
2017-10-29T07:12:57.644Z,90.50
2017-10-29T07:15:25.236Z,90.50
2017-10-29T07:17:53.550Z,89.50
2017-10-29T07:20:21.104Z,88.80
2017-10-29T07:22:48.666Z,88.80
2017-10-29T07:25:16.242Z,87.80
2017-10-29T07:27:49.122Z,83.30
2017-10-29T07:30:16.731Z,82.90
2017-10-29T07:32:44.261Z,81.00
2017-10-29T07:35:11.791Z,80.10
2017-10-29T07:37:39.348Z,81.00
2017-10-29T07:40:06.862Z,78.40
2017-10-29T07:42:34.383Z,80.30
2017-10-29T07:45:01.932Z,77.00
2017-10-29T07:47:29.473Z,77.10
2017-10-29T07:49:57.007Z,75.80
2017-10-29T07:52:24.579Z,75.40
2017-10-29T07:54:53.040Z,76.40
2017-10-29T07:57:20.559Z,76.00
2017-10-29T07:59:48.869Z,75.30
2017-10-29T08:02:16.395Z,74.50
2017-10-29T08:04:43.932Z,74.50
2017-10-29T08:07:11.542Z,73.40
2017-10-29T08:09:39.062Z,75.00
2017-10-29T08:12:06.596Z,75.60
2017-10-29T08:14:34.264Z,71.40
2017-10-29T08:17:01.890Z,71.90
2017-10-29T08:19:29.447Z,71.60
2017-10-29T08:21:57.058Z,71.60
2017-10-29T08:24:25.017Z,71.20
2017-10-29T08:26:52.573Z,71.70
2017-10-29T08:29:20.312Z,69.40
2017-10-29T08:31:47.919Z,69.40
2017-10-29T08:34:16.430Z,66.70
2017-10-29T08:36:44.005Z,66.10
2017-10-29T08:39:11.595Z,66.60
2017-10-29T08:41:39.120Z,65.90
2017-10-29T08:44:07.505Z,65.70
2017-10-29T08:46:35.038Z,65.20
2017-10-29T08:49:03.356Z,63.60
2017-10-29T08:51:30.964Z,62.60
2017-10-29T08:53:58.526Z,62.30
2017-10-29T08:56:26.091Z,62.20
2017-10-29T08:58:53.668Z,62.30
2017-10-29T09:01:22.157Z,61.50
2017-10-29T09:03:49.908Z,60.60
2017-10-29T09:06:17.492Z,61.20
2017-10-29T09:08:45.270Z,61.60
2017-10-29T09:11:12.947Z,59.30
2017-10-29T09:13:40.648Z,56.70
2017-10-29T09:16:09.250Z,55.50
2017-10-29T09:18:37.640Z,55.40
2017-10-29T09:21:05.295Z,54.60
2017-10-29T09:23:32.952Z,53.10
2017-10-29T09:26:00.654Z,50.90
2017-10-29T09:28:29.047Z,47.90
2017-10-29T09:30:56.673Z,48.00
2017-10-29T09:33:24.552Z,48.50
2017-10-29T09:35:52.199Z,48.80
2017-10-29T09:38:19.868Z,47.80
2017-10-29T09:40:47.537Z,48.30
2017-10-29T09:43:15.099Z,47.30
2017-10-29T09:45:43.400Z,47.60
2017-10-29T09:48:10.944Z,47.60
2017-10-29T09:50:38.556Z,47.10
2017-10-29T09:53:06.848Z,48.10
2017-10-29T09:55:34.380Z,47.80
2017-10-29T09:58:01.952Z,48.90
2017-10-29T10:00:29.510Z,48.80
2017-10-29T10:02:57.045Z,50.60
2017-10-29T10:05:24.617Z,49.90
2017-10-29T10:07:52.652Z,49.80
2017-10-29T10:10:20.192Z,49.30
2017-10-29T10:12:48.560Z,50.80
2017-10-29T10:15:16.129Z,50.40
2017-10-29T10:17:43.665Z,50.30
2017-10-29T10:20:11.265Z,50.10
2017-10-29T10:22:38.784Z,50.10
2017-10-29T10:25:07.089Z,49.20
2017-10-29T10:27:34.664Z,48.60
2017-10-29T10:30:02.546Z,49.40
2017-10-29T10:32:30.119Z,47.60
2017-10-29T10:34:57.695Z,46.80
2017-10-29T10:37:25.226Z,46.30
2017-10-29T10:39:52.770Z,46.40
2017-10-29T10:42:20.322Z,45.60
2017-10-29T10:44:47.866Z,46.50
2017-10-29T10:47:16.352Z,46.60
2017-10-29T10:49:44.595Z,44.70
2017-10-29T10:52:12.138Z,43.30
2017-10-29T10:54:39.671Z,44.10
2017-10-29T10:57:07.251Z,45.30
2017-10-29T10:59:34.814Z,44.10
2017-10-29T11:02:03.502Z,46.10
2017-10-29T11:04:40.934Z,45.70
2017-10-29T11:07:08.496Z,45.30
2017-10-29T11:09:36.824Z,45.90
2017-10-29T11:12:04.395Z,45.50
2017-10-29T11:14:31.955Z,44.70
2017-10-29T11:16:59.470Z,45.30
2017-10-29T11:19:27.036Z,45.60
2017-10-29T11:21:54.567Z,46.60
2017-10-29T11:24:22.098Z,48.60
2017-10-29T11:26:49.679Z,49.60
2017-10-29T11:29:17.207Z,49.90
2017-10-29T11:31:44.743Z,49.70
2017-10-29T11:34:12.293Z,47.60
2017-10-29T11:36:39.820Z,48.70
2017-10-29T11:39:07.370Z,48.30
2017-10-29T11:41:34.944Z,48.30
2017-10-29T11:44:02.465Z,47.50
2017-10-29T11:46:30.112Z,47.40
2017-10-29T11:48:57.756Z,47.80
2017-10-29T11:51:25.294Z,48.50
2017-10-29T11:53:53.611Z,47.90
2017-10-29T11:56:21.283Z,48.10
2017-10-29T11:58:48.831Z,47.30
2017-10-29T12:01:16.353Z,46.50
2017-10-29T12:03:43.926Z,47.00
2017-10-29T12:06:11.460Z,45.50
2017-10-29T12:08:39.097Z,43.80
2017-10-29T12:11:06.951Z,43.70
2017-10-29T12:13:34.602Z,44.40
2017-10-29T12:16:02.205Z,45.50
2017-10-29T12:18:29.794Z,45.40
2017-10-29T12:20:57.345Z,45.90
2017-10-29T12:23:24.920Z,46.30
2017-10-29T12:25:52.479Z,47.40
2017-10-29T12:28:20.055Z,47.20
2017-10-29T12:30:47.626Z,47.10
2017-10-29T12:33:15.478Z,46.20
2017-10-29T12:35:43.020Z,46.80
2017-10-29T12:38:10.561Z,45.20
2017-10-29T12:40:38.259Z,44.30
2017-10-29T12:43:05.787Z,45.10
2017-10-29T12:45:33.343Z,45.60
2017-10-29T12:48:00.907Z,44.20
2017-10-29T12:50:29.231Z,45.20
2017-10-29T12:52:56.763Z,44.90
2017-10-29T12:55:25.093Z,43.90
2017-10-29T12:57:56.547Z,44.80
2017-10-29T13:00:24.119Z,44.50
2017-10-29T13:02:51.677Z,45.90
2017-10-29T13:05:19.221Z,45.40
2017-10-29T13:07:46.781Z,45.70
2017-10-29T13:10:14.424Z,47.10
2017-10-29T13:12:41.998Z,48.10
2017-10-29T13:15:10.312Z,48.60
2017-10-29T13:17:37.853Z,48.20
2017-10-29T13:20:05.385Z,48.20
2017-10-29T13:22:32.957Z,49.20
2017-10-29T13:25:00.488Z,49.00
2017-10-29T13:27:28.026Z,49.50
2017-10-29T13:29:55.596Z,49.30
2017-10-29T13:32:23.219Z,48.90
2017-10-29T13:34:50.844Z,49.50
2017-10-29T13:37:18.413Z,49.80
2017-10-29T13:39:45.958Z,50.30
2017-10-29T13:42:13.512Z,49.80
2017-10-29T13:44:41.064Z,50.30
2017-10-29T13:47:08.601Z,50.70
2017-10-29T13:49:36.162Z,51.60
2017-10-29T13:52:03.715Z,52.30
2017-10-29T13:54:31.247Z,52.60
2017-10-29T13:56:59.878Z,52.80
2017-10-29T13:59:27.436Z,52.60
2017-10-29T14:01:55.003Z,53.10
2017-10-29T14:04:22.640Z,53.10
2017-10-29T14:06:50.259Z,53.50
2017-10-29T14:09:17.796Z,52.50
2017-10-29T14:11:47.215Z,52.50
2017-10-29T14:14:16.700Z,53.20
2017-10-29T14:16:45.947Z,52.80
2017-10-29T14:19:15.274Z,52.60
2017-10-29T14:21:45.103Z,53.20
2017-10-29T14:26:51.891Z,53.50
2017-10-29T14:29:19.689Z,53.70
2017-10-29T14:31:47.672Z,53.80
2017-10-29T14:34:17.991Z,52.50
2017-10-29T14:36:47.277Z,52.90
2017-10-29T14:39:15.005Z,52.40
2017-10-29T14:41:43.805Z,53.60
2017-10-29T14:44:11.449Z,52.70
2017-10-29T14:46:40.257Z,53.20
2017-10-29T14:49:07.833Z,52.80
2017-10-29T14:51:35.419Z,52.80
2017-10-29T14:54:02.998Z,52.50
2017-10-29T14:56:30.819Z,53.10
2017-10-29T14:58:58.362Z,52.70
2017-10-29T15:01:25.953Z,52.80
2017-10-29T15:03:54.022Z,53.50
2017-10-29T15:06:21.552Z,53.30
2017-10-29T15:08:49.084Z,53.10
2017-10-29T15:11:16.725Z,53.10
2017-10-29T15:13:44.309Z,53.00
2017-10-29T15:16:11.865Z,53.10
2017-10-29T15:18:39.446Z,53.30
2017-10-29T15:21:07.025Z,52.80
2017-10-29T15:23:34.641Z,52.80
2017-10-29T15:26:02.208Z,52.80
2017-10-29T15:28:29.856Z,52.70
2017-10-29T15:30:57.467Z,53.50
2017-10-29T15:33:25.271Z,53.70
2017-10-29T15:35:52.825Z,54.50
2017-10-29T15:38:21.556Z,55.10
2017-10-29T15:40:49.116Z,54.50
2017-10-29T15:43:17.288Z,55.20
2017-10-29T15:45:46.198Z,55.80
2017-10-29T15:48:14.802Z,55.30
2017-10-29T15:50:53.056Z,55.50
2017-10-29T15:53:21.858Z,56.50
2017-10-29T15:55:49.903Z,56.00
2017-10-29T15:58:18.021Z,56.50
2017-10-29T16:00:45.937Z,56.50
2017-10-29T16:03:14.182Z,56.60
2017-10-29T16:05:42.361Z,56.40
2017-10-29T16:08:10.295Z,56.90
2017-10-29T16:10:38.024Z,57.40
2017-10-29T16:13:06.385Z,57.60
2017-10-29T16:15:38.538Z,58.30
2017-10-29T16:18:09.735Z,58.70
2017-10-29T16:20:39.063Z,58.30
2017-10-29T16:23:08.424Z,58.30
2017-10-29T16:25:37.860Z,59.30
2017-10-29T16:28:07.476Z,59.00
2017-10-29T16:30:37.144Z,59.10
2017-10-29T16:33:06.896Z,59.80
2017-10-29T16:35:39.442Z,59.70
2017-10-29T16:38:10.902Z,60.60
2017-10-29T16:40:41.996Z,60.60
2017-10-29T16:43:12.563Z,60.50
2017-10-29T16:45:42.405Z,60.00
2017-10-29T16:48:12.521Z,61.00
2017-10-29T16:50:46.696Z,61.30
2017-10-29T16:53:18.900Z,61.60
2017-10-29T16:55:49.442Z,60.30
2017-10-29T16:58:19.175Z,60.40
2017-10-29T17:00:50.768Z,59.60
2017-10-29T17:03:22.845Z,60.20
2017-10-29T17:05:52.562Z,61.20
2017-10-29T17:08:23.678Z,61.30
2017-10-29T17:10:53.520Z,60.10
2017-10-29T17:13:23.595Z,60.90
2017-10-29T17:15:54.856Z,61.50
2017-10-29T17:18:24.026Z,61.10
2017-10-29T17:20:54.923Z,60.40
2017-10-29T17:23:24.744Z,60.40
2017-10-29T17:25:57.940Z,61.20
2017-10-29T17:28:28.424Z,61.00
2017-10-29T17:30:58.951Z,60.30
2017-10-29T17:33:27.190Z,62.20
2017-10-29T17:35:56.586Z,62.20
2017-10-29T17:38:24.777Z,60.80
2017-10-29T17:40:52.523Z,61.90
2017-10-29T17:43:20.542Z,60.50
2017-10-29T17:45:48.831Z,60.80
2017-10-29T17:48:17.532Z,61.80
2017-10-29T17:50:47.263Z,61.00
2017-10-29T17:53:16.900Z,61.30
2017-10-29T17:55:45.723Z,64.00
2017-10-29T17:58:14.014Z,63.30
2017-10-29T18:00:42.118Z,63.70
2017-10-29T18:03:10.502Z,63.40
2017-10-29T18:05:38.592Z,63.10
2017-10-29T18:08:06.769Z,63.80
2017-10-29T18:10:35.556Z,62.10
2017-10-29T18:13:03.747Z,61.40
2017-10-29T18:15:31.769Z,63.10
2017-10-29T18:18:00.143Z,63.90
2017-10-29T18:20:28.024Z,62.30
2017-10-29T18:22:55.791Z,62.00
2017-10-29T18:25:23.724Z,63.90
2017-10-29T18:27:51.542Z,63.20
2017-10-29T18:30:20.194Z,64.40
2017-10-29T18:32:48.789Z,63.40
2017-10-29T18:35:17.501Z,63.50
2017-10-29T18:37:45.196Z,62.90
2017-10-29T18:40:13.835Z,62.80
2017-10-29T18:42:41.902Z,62.60
2017-10-29T18:45:09.693Z,63.80
2017-10-29T18:47:37.383Z,65.00
2017-10-29T18:50:05.084Z,64.30
2017-10-29T18:52:33.854Z,66.20
2017-10-29T18:55:02.125Z,65.40
2017-10-29T18:57:32.217Z,64.90
2017-10-29T19:00:00.444Z,64.70
2017-10-29T19:02:29.199Z,65.30
2017-10-29T19:04:58.407Z,64.70
2017-10-29T19:07:26.622Z,65.60
2017-10-29T19:09:54.272Z,65.90
2017-10-29T19:12:21.923Z,64.80
2017-10-29T19:14:49.683Z,65.90
2017-10-29T19:17:18.283Z,66.30
2017-10-29T19:19:46.857Z,65.60
2017-10-29T19:22:15.619Z,66.80
2017-10-29T19:24:43.401Z,65.90
2017-10-29T19:27:11.220Z,66.30
2017-10-29T19:29:39.058Z,66.00
2017-10-29T19:32:07.564Z,66.40
2017-10-29T19:34:36.111Z,65.90
2017-10-29T19:37:04.856Z,67.00
2017-10-29T19:39:32.532Z,65.90
2017-10-29T19:42:01.370Z,66.50
2017-10-29T19:44:29.310Z,66.40
2017-10-29T19:46:56.892Z,65.80
2017-10-29T19:49:24.707Z,66.00
2017-10-29T19:51:52.424Z,66.40
2017-10-29T19:54:20.806Z,65.80
2017-10-29T19:56:49.791Z,66.30
2017-10-29T19:59:17.689Z,66.40
2017-10-29T20:01:45.969Z,66.20
2017-10-29T20:04:14.379Z,66.30
2017-10-29T20:06:42.144Z,67.00
2017-10-29T20:09:09.958Z,66.90
2017-10-29T20:11:37.844Z,67.20
2017-10-29T20:14:05.498Z,66.90
2017-10-29T20:16:33.967Z,66.40
2017-10-29T20:19:01.732Z,66.70
2017-10-29T20:21:29.565Z,67.20
2017-10-29T20:23:57.227Z,67.20
2017-10-29T20:26:25.280Z,66.90
2017-10-29T20:28:53.046Z,67.30
2017-10-29T20:31:20.608Z,67.40
2017-10-29T20:33:49.343Z,69.20
2017-10-29T20:36:17.760Z,69.00
2017-10-29T20:38:46.383Z,69.40
2017-10-29T20:41:14.142Z,68.40
2017-10-29T20:43:42.179Z,67.70
2017-10-29T20:46:10.962Z,67.50
2017-10-29T20:48:38.663Z,68.60
2017-10-29T20:51:06.259Z,67.80
2017-10-29T20:53:34.210Z,67.40
2017-10-29T20:56:02.692Z,68.20
2017-10-29T20:58:30.346Z,67.80
2017-10-29T21:00:57.980Z,67.50
2017-10-29T21:03:25.582Z,68.10
2017-10-29T21:05:53.195Z,67.40
2017-10-29T21:08:20.864Z,67.50
2017-10-29T21:10:49.375Z,67.30
2017-10-29T21:13:17.418Z,67.00
2017-10-29T21:15:46.843Z,67.70
2017-10-29T21:18:15.248Z,68.00
2017-10-29T21:20:43.191Z,67.70
2017-10-29T21:23:10.738Z,67.10
2017-10-29T21:25:38.284Z,67.50
2017-10-29T21:28:05.894Z,67.90
2017-10-29T21:30:34.251Z,67.80
2017-10-29T21:33:02.672Z,68.20
2017-10-29T21:35:30.305Z,67.30
2017-10-29T21:37:57.923Z,67.30
2017-10-29T21:40:26.423Z,67.30
2017-10-29T21:42:54.737Z,66.80
2017-10-29T21:45:22.461Z,67.30
2017-10-29T21:47:50.110Z,67.20
2017-10-29T21:50:17.658Z,67.50
2017-10-29T21:52:45.188Z,67.80
2017-10-29T21:55:13.136Z,68.00
2017-10-29T21:57:40.807Z,68.00
2017-10-29T22:00:09.185Z,68.50
2017-10-29T22:02:37.122Z,67.70
2017-10-29T22:05:04.793Z,67.80
2017-10-29T22:07:33.598Z,68.80
2017-10-29T22:10:01.725Z,68.00
2017-10-29T22:12:29.715Z,68.60
2017-10-29T22:14:57.593Z,68.40
2017-10-29T22:17:25.800Z,69.10
2017-10-29T22:19:53.572Z,68.60
2017-10-29T22:22:24.428Z,68.80
2017-10-29T22:24:52.846Z,69.90
2017-10-29T22:27:20.483Z,68.40
2017-10-29T22:29:48.230Z,68.40
2017-10-29T22:32:16.140Z,68.90
2017-10-29T22:34:43.839Z,69.10
2017-10-29T22:37:12.934Z,69.80
2017-10-29T22:39:40.671Z,69.00
2017-10-29T22:42:08.493Z,69.40
2017-10-29T22:44:36.174Z,70.10
2017-10-29T22:47:03.805Z,69.30
2017-10-29T22:49:31.812Z,70.10
2017-10-29T22:51:59.360Z,70.40
2017-10-29T22:54:27.002Z,69.60
2017-10-29T22:56:54.706Z,70.20
2017-10-29T22:59:22.745Z,70.30
2017-10-29T23:01:50.360Z,70.20
2017-10-29T23:04:19.472Z,69.60
2017-10-29T23:06:47.009Z,70.00
2017-10-29T23:09:22.324Z,70.00
2017-10-29T23:11:49.858Z,70.50
2017-10-29T23:14:17.465Z,69.10
2017-10-29T23:16:45.128Z,69.30
2017-10-29T23:19:14.996Z,69.50
2017-10-29T23:21:44.831Z,70.20
2017-10-29T23:24:14.551Z,69.40
2017-10-29T23:26:44.563Z,69.80
2017-10-29T23:29:14.505Z,69.10
2017-10-29T23:31:45.351Z,69.00
2017-10-29T23:34:15.481Z,68.40
2017-10-29T23:36:48.906Z,68.30
2017-10-29T23:39:19.993Z,69.90
2017-10-29T23:41:50.056Z,68.40
2017-10-29T23:44:20.490Z,69.00
2017-10-29T23:46:50.753Z,70.00
2017-10-29T23:49:23.899Z,69.00
2017-10-29T23:51:51.716Z,70.50
2017-10-29T23:54:21.812Z,69.50
2017-10-29T23:56:51.993Z,69.80
2017-10-29T23:59:22.583Z,69.80
